createdAt,value
2018-10-11T00:00:02.840Z,43.30
2018-10-11T00:02:31.586Z,45.80
2018-10-11T00:05:00.599Z,48.10
2018-10-11T00:07:29.610Z,48.10
2018-10-11T00:09:58.303Z,49.70
2018-10-11T00:12:27.120Z,52.20
2018-10-11T00:14:56.173Z,52.60
2018-10-11T00:17:24.904Z,55.50
2018-10-11T00:19:53.688Z,56.20
2018-10-11T00:22:23.022Z,56.00
2018-10-11T00:24:52.042Z,56.00
2018-10-11T00:27:21.086Z,54.60
2018-10-11T00:29:50.152Z,57.00
2018-10-11T00:32:19.232Z,57.60
2018-10-11T00:34:48.269Z,58.10
2018-10-11T00:37:17.347Z,57.30
2018-10-11T00:39:46.365Z,57.00
2018-10-11T00:42:15.511Z,56.80
2018-10-11T00:44:44.539Z,56.30
2018-10-11T00:47:13.580Z,56.50
2018-10-11T00:49:42.669Z,56.40
2018-10-11T00:52:11.682Z,59.10
2018-10-11T00:54:40.381Z,60.50
2018-10-11T00:57:09.465Z,60.50
2018-10-11T00:59:38.360Z,60.90
2018-10-11T01:02:07.600Z,62.40
2018-10-11T01:04:36.647Z,61.80
2018-10-11T01:07:05.064Z,60.10
2018-10-11T01:09:34.134Z,61.30
2018-10-11T01:12:03.138Z,62.30
2018-10-11T01:14:32.422Z,62.70
2018-10-11T01:17:01.490Z,63.20
2018-10-11T01:19:30.286Z,62.30
2018-10-11T01:21:59.035Z,60.90
2018-10-11T01:24:28.134Z,60.30
2018-10-11T01:26:56.521Z,63.00
2018-10-11T01:29:25.598Z,63.70
2018-10-11T01:31:54.821Z,63.90
2018-10-11T01:34:23.549Z,63.90
2018-10-11T01:36:52.316Z,64.40
2018-10-11T01:39:20.706Z,65.90
2018-10-11T01:41:49.061Z,64.00
2018-10-11T01:44:17.441Z,64.00
2018-10-11T01:46:45.855Z,65.40
2018-10-11T01:49:14.569Z,66.70
2018-10-11T01:51:43.690Z,67.50
2018-10-11T01:54:12.387Z,70.20
2018-10-11T01:56:41.111Z,70.20
2018-10-11T01:59:10.319Z,70.40
2018-10-11T02:01:39.361Z,71.10
2018-10-11T02:04:08.078Z,72.40
2018-10-11T02:06:36.433Z,73.80
2018-10-11T02:09:05.888Z,75.30
2018-10-11T02:11:34.979Z,74.50
2018-10-11T02:14:04.082Z,75.70
2018-10-11T02:16:33.118Z,75.90
2018-10-11T02:19:01.473Z,75.60
2018-10-11T02:21:30.205Z,76.30
2018-10-11T02:23:59.289Z,76.30
2018-10-11T02:26:28.323Z,76.40
2018-10-11T02:28:57.046Z,75.20
2018-10-11T02:31:26.274Z,76.70
2018-10-11T02:33:55.470Z,75.90
2018-10-11T02:36:24.499Z,74.00
2018-10-11T02:38:53.418Z,76.00
2018-10-11T02:41:21.814Z,76.40
2018-10-11T02:43:50.837Z,77.70
2018-10-11T02:46:19.909Z,77.70
2018-10-11T02:48:48.953Z,79.20
2018-10-11T02:51:18.118Z,79.90
2018-10-11T02:53:46.821Z,79.00
2018-10-11T02:56:15.169Z,77.00
2018-10-11T02:58:55.005Z,77.20
2018-10-11T03:01:23.465Z,76.90
2018-10-11T03:03:54.473Z,78.80
2018-10-11T03:06:23.164Z,78.90
2018-10-11T03:08:51.562Z,80.40
2018-10-11T03:11:19.939Z,79.40
2018-10-11T03:13:48.966Z,80.90
2018-10-11T03:16:17.390Z,80.80
2018-10-11T03:18:46.434Z,80.30
2018-10-11T03:21:15.145Z,79.50
2018-10-11T03:23:43.826Z,80.00
2018-10-11T03:26:12.526Z,80.10
2018-10-11T03:28:41.582Z,78.90
2018-10-11T03:31:10.289Z,78.70
2018-10-11T03:33:38.977Z,77.90
2018-10-11T03:36:08.125Z,78.20
2018-10-11T03:38:37.170Z,77.80
2018-10-11T03:41:05.963Z,78.10
2018-10-11T03:43:34.625Z,77.10
2018-10-11T03:46:03.645Z,76.00
2018-10-11T03:48:32.566Z,75.50
2018-10-11T03:51:01.289Z,75.60
2018-10-11T03:53:30.322Z,75.80
2018-10-11T03:55:59.345Z,74.70
2018-10-11T03:58:28.105Z,75.80
2018-10-11T04:00:56.817Z,75.90
2018-10-11T04:03:25.221Z,77.40
2018-10-11T04:05:53.942Z,78.90
2018-10-11T04:08:22.994Z,80.50
2018-10-11T04:10:51.678Z,80.40
2018-10-11T04:13:20.754Z,80.40
2018-10-11T04:15:49.117Z,78.90
2018-10-11T04:18:17.798Z,79.50
2018-10-11T04:20:46.841Z,79.60
2018-10-11T04:23:21.361Z,81.10
2018-10-11T04:25:50.358Z,81.50
2018-10-11T04:28:19.405Z,81.40
2018-10-11T04:30:48.443Z,82.60
2018-10-11T04:33:17.447Z,82.50
2018-10-11T04:35:46.713Z,83.00
2018-10-11T04:38:15.135Z,82.90
2018-10-11T04:40:44.141Z,84.50
2018-10-11T04:43:13.766Z,84.10
2018-10-11T04:45:43.934Z,84.40
2018-10-11T04:48:13.309Z,83.20
2018-10-11T04:50:43.641Z,82.90
2018-10-11T04:53:13.806Z,84.10
2018-10-11T04:55:43.837Z,83.30
2018-10-11T04:58:12.877Z,83.60
2018-10-11T05:00:41.718Z,81.70
2018-10-11T05:03:11.882Z,81.00
2018-10-11T05:05:41.356Z,73.00
2018-10-11T05:08:10.285Z,68.80
2018-10-11T05:10:39.018Z,68.00
2018-10-11T05:13:07.441Z,68.80
2018-10-11T05:15:37.162Z,71.00
2018-10-11T05:18:06.683Z,70.20
2018-10-11T05:20:35.001Z,71.80
2018-10-11T05:23:03.340Z,70.00
2018-10-11T05:25:31.705Z,70.90
2018-10-11T05:28:00.277Z,71.00
2018-10-11T05:30:29.031Z,70.40
2018-10-11T05:32:57.430Z,70.80
2018-10-11T05:35:26.453Z,70.80
2018-10-11T05:37:55.465Z,69.60
2018-10-11T05:40:24.150Z,69.80
2018-10-11T05:42:52.528Z,68.50
2018-10-11T05:45:22.445Z,67.20
2018-10-11T05:47:50.825Z,63.30
2018-10-11T05:50:19.303Z,63.90
2018-10-11T05:52:47.993Z,63.60
2018-10-11T05:55:16.357Z,63.00
2018-10-11T05:57:45.117Z,60.60
2018-10-11T06:00:13.658Z,58.50
2018-10-11T06:02:53.487Z,55.70
2018-10-11T06:05:21.891Z,56.10
2018-10-11T06:07:50.834Z,52.30
2018-10-11T06:10:19.251Z,47.20
2018-10-11T06:12:47.617Z,46.50
2018-10-11T06:15:16.022Z,42.20
2018-10-11T06:17:45.025Z,35.50
2018-10-11T06:20:14.068Z,30.00
2018-10-11T06:22:42.450Z,29.10
2018-10-11T06:25:11.418Z,26.90
2018-10-11T06:27:40.677Z,19.70
2018-10-11T06:30:09.050Z,18.30
2018-10-11T06:32:37.645Z,15.00
2018-10-11T06:35:06.461Z,12.90
2018-10-11T06:37:34.922Z,6.50
2018-10-11T06:40:03.258Z,1.00
2018-10-11T06:42:31.722Z,1.00
2018-10-11T06:45:00.201Z,1.00
2018-10-11T06:47:29.202Z,1.00
2018-10-11T06:49:57.951Z,1.00
2018-10-11T06:52:26.510Z,1.00
2018-10-11T06:54:54.557Z,1.00
2018-10-11T06:57:23.317Z,1.00
2018-10-11T06:59:52.274Z,1.00
2018-10-11T07:02:20.723Z,1.00
2018-10-11T07:04:49.487Z,83.90
2018-10-11T07:07:18.293Z,99.90
2018-10-11T07:09:47.259Z,1.00
2018-10-11T07:13:40.315Z,68.70
2018-10-11T07:16:08.710Z,1.00
2018-10-11T07:18:37.421Z,99.90
2018-10-11T07:21:05.560Z,99.90
2018-10-11T07:23:34.379Z,1.00
2018-10-11T07:26:02.858Z,1.00
2018-10-11T07:28:31.430Z,99.90
2018-10-11T07:31:00.213Z,1.00
2018-10-11T07:33:28.976Z,99.90
2018-10-11T07:35:57.705Z,33.60
2018-10-11T07:38:26.538Z,24.90
2018-10-11T07:40:55.601Z,76.50
2018-10-11T07:43:24.485Z,1.00
2018-10-11T07:45:53.223Z,99.90
2018-10-11T07:48:21.619Z,99.90
2018-10-11T07:50:50.478Z,77.40
2018-10-11T07:53:19.210Z,1.00
2018-10-11T07:55:47.614Z,1.00
2018-10-11T07:58:16.337Z,1.00
2018-10-11T08:00:44.743Z,99.90
2018-10-11T08:03:13.433Z,99.90
2018-10-11T08:05:42.151Z,99.90
2018-10-11T08:08:10.881Z,99.90
2018-10-11T08:10:39.526Z,99.90
2018-10-11T08:13:08.302Z,99.90
2018-10-11T08:15:36.713Z,99.90
2018-10-11T08:18:05.714Z,99.90
2018-10-11T08:20:33.890Z,99.90
2018-10-11T08:23:02.712Z,99.90
2018-10-11T08:25:31.867Z,99.90
2018-10-11T08:28:00.280Z,99.90
2018-10-11T08:30:28.361Z,99.90
2018-10-11T08:32:57.129Z,99.90
2018-10-11T08:35:26.017Z,99.90
2018-10-11T08:37:54.193Z,99.90
2018-10-11T08:40:22.530Z,99.90
2018-10-11T08:42:51.305Z,99.90
2018-10-11T08:45:19.789Z,46.30
2018-10-11T08:47:48.553Z,21.40
2018-10-11T08:50:16.645Z,27.70
2018-10-11T08:52:45.543Z,7.90
2018-10-11T08:55:14.284Z,1.00
2018-10-11T08:57:43.017Z,1.00
2018-10-11T09:00:11.437Z,1.00
2018-10-11T09:02:40.237Z,1.00
2018-10-11T09:05:08.685Z,1.00
2018-10-11T09:07:37.235Z,1.00
2018-10-11T09:10:05.303Z,1.00
2018-10-11T09:12:33.770Z,1.00
2018-10-11T09:15:02.234Z,1.00
2018-10-11T09:17:31.022Z,1.00
2018-10-11T09:19:59.513Z,1.00
2018-10-11T09:22:28.646Z,1.00
2018-10-11T09:24:57.561Z,1.00
2018-10-11T09:27:25.755Z,1.00
2018-10-11T09:29:54.205Z,1.00
2018-10-11T09:32:22.617Z,1.00
2018-10-11T09:34:51.416Z,1.00
2018-10-11T09:37:20.166Z,1.00
2018-10-11T09:39:48.598Z,1.00
2018-10-11T09:42:17.385Z,1.00
2018-10-11T09:44:45.585Z,1.00
2018-10-11T09:47:14.446Z,1.00
2018-10-11T09:49:43.173Z,1.00
2018-10-11T09:52:11.953Z,1.00
2018-10-11T09:54:40.662Z,1.00
2018-10-11T09:57:19.564Z,1.00
2018-10-11T09:59:48.008Z,1.00
2018-10-11T10:02:16.701Z,1.00
2018-10-11T10:04:46.622Z,1.00
2018-10-11T10:07:15.080Z,1.00
2018-10-11T10:09:44.625Z,1.00
2018-10-11T10:12:13.382Z,1.00
2018-10-11T10:14:42.465Z,1.00
2018-10-11T10:17:10.593Z,1.00
2018-10-11T10:19:39.025Z,1.00
2018-10-11T10:22:07.200Z,1.00
2018-10-11T10:24:36.470Z,1.00
2018-10-11T10:27:04.329Z,1.00
2018-10-11T10:29:33.457Z,1.00
2018-10-11T10:32:03.271Z,1.00
2018-10-11T10:34:32.282Z,1.00
2018-10-11T10:37:02.896Z,1.00
2018-10-11T10:39:31.641Z,1.00
2018-10-11T10:41:59.733Z,1.00
2018-10-11T10:44:28.338Z,1.00
2018-10-11T10:46:56.776Z,1.00
2018-10-11T10:49:25.616Z,1.00
2018-10-11T10:51:54.370Z,1.00
2018-10-11T10:54:30.886Z,1.00
2018-10-11T10:56:59.998Z,1.00
2018-10-11T10:59:28.910Z,1.00
2018-10-11T11:01:57.646Z,1.00
2018-10-11T11:04:26.030Z,1.00
2018-10-11T11:06:54.866Z,1.00
2018-10-11T11:09:23.513Z,1.00
2018-10-11T11:11:51.801Z,1.00
2018-10-11T11:14:20.557Z,1.00
2018-10-11T11:16:49.307Z,1.00
2018-10-11T11:19:18.096Z,1.00
2018-10-11T11:21:46.191Z,1.00
2018-10-11T11:24:14.585Z,1.00
2018-10-11T11:26:43.376Z,1.00
2018-10-11T11:29:12.136Z,1.00
2018-10-11T11:31:40.876Z,1.00
2018-10-11T11:34:09.293Z,1.00
2018-10-11T11:36:38.100Z,1.00
2018-10-11T11:39:08.203Z,1.00
2018-10-11T11:41:36.889Z,1.00
2018-10-11T11:44:06.088Z,1.00
2018-10-11T11:46:34.845Z,1.00
2018-10-11T11:49:03.639Z,1.00
2018-10-11T11:51:32.081Z,1.00
2018-10-11T11:54:01.532Z,1.00
2018-10-11T11:56:31.377Z,1.00
2018-10-11T11:59:01.414Z,1.00
2018-10-11T12:01:30.481Z,1.00
2018-10-11T12:03:59.101Z,1.00
2018-10-11T12:06:27.536Z,1.00
2018-10-11T12:08:56.456Z,1.00
2018-10-11T12:11:24.570Z,1.00
2018-10-11T12:13:53.316Z,1.00
2018-10-11T12:16:21.700Z,1.00
2018-10-11T12:18:56.946Z,1.00
2018-10-11T12:21:25.385Z,1.00
2018-10-11T12:23:54.117Z,1.00
2018-10-11T12:26:22.644Z,1.00
2018-10-11T12:28:51.486Z,1.00
2018-10-11T12:31:21.337Z,1.00
2018-10-11T12:33:50.373Z,1.00
2018-10-11T12:36:18.947Z,1.00
2018-10-11T12:38:48.316Z,1.00
2018-10-11T12:41:17.105Z,1.00
2018-10-11T12:43:47.128Z,1.00
2018-10-11T12:46:15.613Z,1.00
2018-10-11T12:48:44.673Z,1.00
2018-10-11T12:51:13.066Z,1.00
2018-10-11T12:53:44.329Z,1.00
2018-10-11T12:56:10.348Z,1.00
2018-10-11T12:58:39.613Z,1.00
2018-10-11T13:01:07.739Z,1.00
2018-10-11T13:03:37.134Z,1.00
2018-10-11T13:06:05.569Z,1.00
2018-10-11T13:08:34.326Z,1.00
2018-10-11T13:11:03.043Z,1.00
2018-10-11T13:13:31.458Z,1.00
2018-10-11T13:16:02.267Z,1.00
2018-10-11T13:18:29.178Z,1.00
2018-10-11T13:20:57.725Z,1.00
2018-10-11T13:23:26.482Z,1.00
2018-10-11T13:25:55.211Z,1.00
2018-10-11T13:28:23.974Z,1.00
2018-10-11T13:30:52.949Z,1.00
2018-10-11T13:33:22.334Z,1.00
2018-10-11T13:35:51.074Z,1.00
2018-10-11T13:38:20.000Z,1.00
2018-10-11T13:40:48.698Z,1.00
2018-10-11T13:43:18.525Z,1.00
2018-10-11T13:45:49.876Z,99.90
2018-10-11T13:48:17.165Z,1.00
2018-10-11T13:50:46.018Z,1.00
2018-10-11T13:53:19.456Z,1.00
2018-10-11T13:55:48.706Z,1.00
2018-10-11T13:58:12.357Z,1.00
2018-10-11T14:00:41.803Z,1.00
2018-10-11T14:03:10.829Z,1.00
2018-10-11T14:05:39.229Z,99.90
2018-10-11T14:08:08.254Z,99.90
2018-10-11T14:10:37.116Z,99.90
2018-10-11T14:13:12.985Z,99.90
2018-10-11T14:15:35.505Z,99.90
2018-10-11T14:18:09.287Z,99.90
2018-10-11T14:20:32.630Z,99.90
2018-10-11T14:23:01.443Z,99.90
2018-10-11T14:25:29.857Z,99.90
2018-10-11T14:27:58.284Z,99.90
2018-10-11T14:30:26.393Z,99.90
2018-10-11T14:32:54.837Z,99.90
2018-10-11T14:35:23.736Z,99.90
2018-10-11T14:37:52.173Z,99.90
2018-10-11T14:40:20.953Z,99.90
2018-10-11T14:42:49.378Z,99.90
2018-10-11T14:45:18.175Z,99.90
2018-10-11T14:47:46.766Z,99.90
2018-10-11T14:50:15.742Z,99.90
2018-10-11T14:52:44.555Z,99.90
2018-10-11T14:55:12.961Z,99.90
2018-10-11T14:57:41.768Z,99.90
2018-10-11T15:00:10.328Z,99.90
2018-10-11T15:02:38.736Z,99.90
2018-10-11T15:05:07.410Z,99.90
2018-10-11T15:07:35.493Z,99.90
2018-10-11T15:10:04.122Z,99.90
2018-10-11T15:12:32.755Z,99.90
2018-10-11T15:15:01.361Z,99.90
2018-10-11T15:17:30.094Z,99.90
2018-10-11T15:19:58.881Z,99.90
2018-10-11T15:22:27.663Z,99.90
2018-10-11T15:24:56.288Z,99.90
2018-10-11T15:27:25.236Z,99.90
2018-10-11T15:29:53.765Z,99.90
2018-10-11T15:32:22.673Z,99.90
2018-10-11T15:34:51.838Z,99.90
2018-10-11T15:37:20.773Z,99.90
2018-10-11T15:39:49.192Z,99.90
2018-10-11T15:42:17.351Z,99.90
2018-10-11T15:44:46.121Z,99.90
2018-10-11T15:47:14.837Z,99.90
2018-10-11T15:49:43.306Z,99.90
2018-10-11T15:52:12.188Z,99.90
2018-10-11T15:54:41.145Z,99.90
2018-10-11T15:57:09.699Z,99.90
2018-10-11T15:59:38.443Z,99.90
2018-10-11T16:02:06.908Z,99.90
2018-10-11T16:04:35.406Z,99.90
2018-10-11T16:07:04.257Z,99.90
2018-10-11T16:09:32.856Z,99.90
2018-10-11T16:12:01.544Z,99.90
2018-10-11T16:14:29.845Z,99.90
2018-10-11T16:16:58.633Z,99.90
2018-10-11T16:19:26.910Z,99.90
2018-10-11T16:21:55.717Z,99.90
2018-10-11T16:24:24.485Z,99.90
2018-10-11T16:26:52.969Z,99.90
2018-10-11T16:29:22.178Z,99.90
2018-10-11T16:31:50.595Z,99.90
2018-10-11T16:34:19.332Z,99.90
2018-10-11T16:36:48.393Z,99.90
2018-10-11T16:39:17.521Z,99.90
2018-10-11T16:41:46.380Z,99.90
2018-10-11T16:44:14.819Z,99.90
2018-10-11T16:46:43.662Z,99.90
2018-10-11T16:49:12.404Z,99.90
2018-10-11T16:51:40.780Z,99.90
2018-10-11T16:54:09.224Z,99.90
2018-10-11T16:56:37.975Z,99.90
2018-10-11T16:59:06.201Z,99.90
2018-10-11T17:01:35.237Z,99.90
2018-10-11T17:04:03.477Z,99.90
2018-10-11T17:06:32.493Z,99.90
2018-10-11T17:09:01.265Z,99.90
2018-10-11T17:11:30.073Z,99.90
2018-10-11T17:13:58.841Z,99.90
2018-10-11T17:16:27.699Z,99.90
2018-10-11T17:18:56.422Z,1.00
2018-10-11T17:21:25.263Z,1.00
2018-10-11T17:23:54.166Z,1.00
2018-10-11T17:26:22.598Z,1.00
2018-10-11T17:28:51.700Z,1.00
2018-10-11T17:31:20.465Z,1.00
2018-10-11T17:33:49.215Z,1.00
2018-10-11T17:36:17.729Z,1.00
2018-10-11T17:38:47.501Z,1.00
2018-10-11T17:41:16.015Z,1.00
2018-10-11T17:43:44.838Z,1.00
2018-10-11T17:46:13.406Z,1.00
2018-10-11T17:48:41.893Z,1.00
2018-10-11T17:51:10.721Z,1.00
2018-10-11T17:53:39.477Z,1.00
2018-10-11T17:56:07.637Z,1.00
2018-10-11T17:58:36.534Z,1.00
2018-10-11T18:01:05.337Z,1.00
2018-10-11T18:03:34.115Z,1.00
2018-10-11T18:06:02.661Z,1.00
2018-10-11T18:08:31.883Z,1.00
2018-10-11T18:11:00.671Z,1.00
2018-10-11T18:13:29.809Z,1.00
2018-10-11T18:15:58.773Z,1.00
2018-10-11T18:18:27.564Z,1.00
2018-10-11T18:20:55.721Z,1.00
2018-10-11T18:23:24.269Z,24.80
2018-10-11T18:25:52.701Z,30.70
2018-10-11T18:28:21.598Z,90.20
2018-10-11T18:30:50.369Z,99.90
2018-10-11T18:33:19.171Z,99.90
2018-10-11T18:35:47.402Z,99.90
2018-10-11T18:38:16.739Z,99.90
2018-10-11T18:40:45.546Z,99.90
2018-10-11T18:43:14.302Z,99.90
2018-10-11T18:45:42.456Z,99.90
2018-10-11T18:48:11.217Z,99.90
2018-10-11T18:50:40.520Z,99.90
2018-10-11T18:53:09.478Z,1.00
2018-10-11T18:55:37.950Z,1.00
2018-10-11T18:58:06.469Z,1.00
2018-10-11T19:00:34.696Z,1.00
2018-10-11T19:03:03.505Z,1.00
2018-10-11T19:05:32.256Z,1.00
2018-10-11T19:08:01.044Z,1.00
2018-10-11T19:10:29.607Z,1.00
2018-10-11T19:12:58.046Z,6.10
2018-10-11T19:15:26.813Z,92.00
2018-10-11T19:17:55.246Z,99.90
2018-10-11T19:20:23.523Z,99.90
2018-10-11T19:22:52.091Z,99.90
2018-10-11T19:25:20.599Z,1.00
2018-10-11T19:27:49.302Z,1.00
2018-10-11T19:30:18.142Z,1.00
2018-10-11T19:32:46.917Z,1.00
2018-10-11T19:35:15.690Z,1.00
2018-10-11T19:37:44.234Z,99.90
2018-10-11T19:40:13.159Z,99.90
2018-10-11T19:42:41.846Z,99.90
2018-10-11T19:45:10.692Z,84.40
2018-10-11T19:47:39.518Z,99.90
2018-10-11T19:50:08.396Z,1.00
2018-10-11T19:52:37.029Z,1.00
2018-10-11T19:55:05.292Z,1.00
2018-10-11T19:57:33.760Z,1.00
2018-10-11T20:00:02.588Z,1.00
2018-10-11T20:02:31.551Z,1.00
2018-10-11T20:05:00.125Z,1.00
2018-10-11T20:07:28.286Z,1.00
2018-10-11T20:09:57.223Z,99.90
2018-10-11T20:12:25.844Z,1.00
2018-10-11T20:14:54.674Z,99.90
2018-10-11T20:17:23.707Z,99.90
2018-10-11T20:19:51.951Z,99.90
2018-10-11T20:22:20.813Z,99.90
2018-10-11T20:24:49.276Z,99.90
2018-10-11T20:27:17.867Z,99.90
2018-10-11T20:29:46.341Z,99.90
2018-10-11T20:32:15.279Z,99.90
2018-10-11T20:34:44.479Z,94.10
2018-10-11T20:37:12.969Z,99.90
2018-10-11T20:39:41.810Z,99.90
2018-10-11T20:42:10.908Z,99.90
2018-10-11T20:44:39.804Z,99.90
2018-10-11T20:47:08.697Z,99.90
2018-10-11T20:49:37.636Z,99.90
2018-10-11T20:52:06.470Z,99.90
2018-10-11T20:54:34.783Z,90.90
2018-10-11T20:57:03.777Z,1.00
2018-10-11T20:59:32.726Z,1.00
2018-10-11T21:02:01.154Z,1.00
2018-10-11T21:04:30.105Z,42.30
2018-10-11T21:06:58.912Z,90.10
2018-10-11T21:09:27.756Z,23.40
2018-10-11T21:11:57.543Z,81.40
2018-10-11T21:14:26.035Z,99.90
2018-10-11T21:16:55.945Z,99.90
2018-10-11T21:19:24.778Z,99.90
2018-10-11T21:21:54.445Z,99.90
2018-10-11T21:24:23.295Z,99.90
2018-10-11T21:26:52.079Z,99.90
2018-10-11T21:29:20.692Z,99.90
2018-10-11T21:31:49.526Z,1.00
2018-10-11T21:34:19.456Z,99.90
2018-10-11T21:36:48.036Z,99.90
2018-10-11T21:39:16.646Z,99.90
2018-10-11T21:41:45.096Z,99.90
2018-10-11T21:44:13.893Z,1.00
2018-10-11T21:46:42.217Z,1.00
2018-10-11T21:49:11.691Z,1.00
2018-10-11T21:51:40.443Z,1.00
2018-10-11T21:54:09.000Z,1.00
2018-10-11T21:56:37.485Z,1.00
2018-10-11T21:59:06.087Z,99.90
2018-10-11T22:01:34.947Z,1.00
2018-10-11T22:04:03.915Z,1.00
2018-10-11T22:06:32.471Z,1.00
2018-10-11T22:09:00.809Z,1.00
2018-10-11T22:11:29.600Z,99.90
2018-10-11T22:13:58.602Z,1.00
2018-10-11T22:16:27.470Z,1.00
2018-10-11T22:18:56.490Z,99.90
2018-10-11T22:21:25.255Z,1.00
2018-10-11T22:23:53.889Z,1.00
2018-10-11T22:26:22.239Z,1.00
2018-10-11T22:28:51.260Z,1.00
2018-10-11T22:31:20.614Z,1.00
2018-10-11T22:33:49.279Z,1.00
2018-10-11T22:36:17.693Z,1.00
2018-10-11T22:38:46.535Z,1.00
2018-10-11T22:41:15.061Z,1.00
2018-10-11T22:43:43.634Z,1.00
2018-10-11T22:46:13.145Z,1.00
2018-10-11T22:48:42.650Z,1.00
2018-10-11T22:51:11.533Z,1.00
2018-10-11T22:53:40.501Z,1.00
2018-10-11T22:56:09.301Z,1.00
2018-10-11T22:58:37.766Z,1.00
2018-10-11T23:01:05.926Z,1.00
2018-10-11T23:03:35.149Z,19.70
2018-10-11T23:06:04.078Z,99.90
2018-10-11T23:08:33.296Z,99.90
2018-10-11T23:11:02.230Z,1.00
2018-10-11T23:13:31.353Z,1.00
2018-10-11T23:15:59.755Z,1.00
2018-10-11T23:18:28.889Z,1.00
2018-10-11T23:20:58.377Z,1.00
2018-10-11T23:23:27.228Z,1.00
2018-10-11T23:25:55.669Z,99.90
2018-10-11T23:28:24.770Z,1.00
2018-10-11T23:30:53.887Z,99.90
2018-10-11T23:33:23.023Z,1.00
2018-10-11T23:35:51.626Z,1.00
2018-10-11T23:38:20.421Z,1.00
2018-10-11T23:40:49.737Z,1.00
2018-10-11T23:43:18.266Z,64.50
2018-10-11T23:45:47.520Z,99.90
2018-10-11T23:48:15.785Z,1.00
2018-10-11T23:50:43.887Z,1.00
2018-10-11T23:53:13.069Z,72.00
2018-10-11T23:55:42.093Z,99.90
2018-10-11T23:58:11.143Z,1.00
